ICAO code: LHPR | IATA code: QGY | AFTN: LHPRZPZX | english | deutsch
Időjárás: 2017-12-13 01:10 (UTC) | Hőmérséklet: 3.4 °C | QNH: 1018.3 hPa | Szél: 2.6 m/s | Részletek
Live ATC LHPR
Webkameránk élőképe

Győr-Pér Repülőtér időjárás adatok

Metar:
METAR LHPR 132315Z AUTO 33016KT 290V350 CAVOK 03/01 Q1015 RMK BL


Taf:
TAF LHPR 132300Z NIL


Jelenidő:
Nem volt érdemleges időjárási jelenség az elmúlt órában
Időbélyeg: 2017-12-13 01:10:00 UTC
Hőmérséklet:
3.4 °C
 
Harmatpont:
1.2 °C
 
Rel. páratartalom:
86%
 
QNH:
1018.3 hPa
 
Szélsebesség:
2.6 m/s
Max:
3.5 m/s
Szélirány:
310°
 
Csapadék (1 óra):
0.0 mm
 
Látótávolság:
20000 m
 
RVR:
>1500 m RWY30
 
1. felhőréteg mennyisége:
0 octa
 
1. felhőréteg alapja:
m


Az adatokat szolgáltatja
az Országos Meteorológiai Szolgálat
Győr-Pér Repülőtér | H 9099 Pér, Repülőtér | Tel: +36/96/559-200 | Fax: +36/96/559-202

ICAO code: LHPR | IATA code: QGY | AFTN: LHPRZPZX


weboldal tervezés: IRQ